Latest Weather Observations for Minlaton Airport

IDS60801

Issued at 7:51 am CDT Tuesday 7 December 2021 (issued every 10 minutes, with the page automatically refreshed every 10 minutes)

About weather observations | Map of weather stations | Latest weather observations for SA | Other Formats
Station Details ID: 022031 Name: MINLATON AERO Lat: -34.75 Lon: 137.53 Height: 32.0 m
Data from the previous 72 hours. | See also: Recent months at Minlaton Airport
Date/Time
CDT
Temp
°C
App
Temp
°C
Dew
Point
°C
Rel
Hum
%
Delta-T
°C
Wind Press
QNH
hPa
Press
MSL
hPa
Rain since
9am
mm
Dir  Spd
km/h
Gust
km/h
Spd
kts
Gust
kts
07/07:30am 14.8 8.9 7.4 61 3.6 S 28 35 15 19 1016.2 1016.1 0.0
07/07:00am 14.2 9.7 8.6 69 2.8 S 22 30 12 16 1016.0 1015.9 0.0
07/06:30am 13.6 9.7 9.3 75 2.2 S 20 26 11 14 1015.7 1015.6 0.0
07/06:00am 13.3 9.7 9.7 79 1.8 SSW 19 22 10 12 1015.6 1015.5 0.0
07/05:30am 13.4 10.5 11.1 86 1.2 S 17 20 9 11 1015.2 1015.1 0.0
07/05:00am 13.2 11.2 11.6 90 0.9 S 13 17 7 9 1014.9 1014.8 0.0
07/04:30am 13.1 10.4 11.8 92 0.7 S 17 20 9 11 1014.7 1014.6 0.0
07/04:00am 13.2 10.0 11.8 91 0.7 S 20 26 11 14 1014.5 1014.4 0.0
07/03:30am 12.6 10.2 10.0 84 1.3 S 13 13 7 7 1014.4 1014.3 0.0
07/03:00am 12.2 9.7 9.6 84 1.3 SSE 13 13 7 7 1014.4 1014.3 0.0
07/02:30am 12.2 9.6 9.2 82 1.5 SSE 13 15 7 8 1014.5 1014.4 0.0
07/02:00am 12.7 10.5 9.3 80 1.7 SSE 11 11 6 6 1014.7 1014.6 0.0
07/01:30am 13.9 12.2 9.7 76 2.2 S 9 11 5 6 1014.8 1014.7 0.0
07/01:00am 13.8 11.1 10.2 79 1.9 SSW 15 17 8 9 1014.9 1014.8 0.0
07/12:30am 13.9 10.4 10.3 79 1.9 SW 19 20 10 11 1015.1 1015.0 0.0
07/12:00am 14.8 11.2 10.6 76 2.2 SW 20 24 11 13 1014.9 1014.8 0.0
 
Date/Time
CDT
Temp
°C
App
Temp
°C
Dew
Point
°C
Rel
Hum
%
Delta-T
°C
Wind Press
QNH
hPa
Press
MSL
hPa
Rain since
9am
mm
Dir  Spd
km/h
Gust
km/h
Spd
kts
Gust
kts
06/11:30pm 14.9 12.0 10.9 77 2.1 SW 17 22 9 12 1014.8 1014.7 0.0
06/11:00pm 13.4 10.2 9.8 79 1.9 SSW 17 20 9 11 1014.8 1014.7 0.0
06/10:30pm 14.0 10.4 9.8 76 2.2 SSW 19 22 10 12 1014.7 1014.6 0.0
06/10:00pm 14.4 10.5 9.6 73 2.5 SW 20 24 11 13 1014.5 1014.4 0.0
06/09:30pm 14.7 10.4 9.3 70 2.8 SW 22 28 12 15 1014.3 1014.2 0.0
06/09:00pm 15.6 10.4 8.8 64 3.5 SW 26 33 14 18 1013.9 1013.8 0.0
06/08:30pm 16.2 10.8 7.9 58 4.2 SSW 26 32 14 17 1013.7 1013.6 0.0
06/08:00pm 17.7 12.2 7.4 51 5.2 SSW 26 33 14 18 1013.3 1013.2 0.0
06/07:30pm 18.8 12.6 7.9 49 5.6 SW 30 35 16 19 1012.9 1012.8 0.0
06/07:00pm 19.9 14.3 8.6 48 5.9 SSW 28 37 15 20 1012.5 1012.4 0.0
06/06:30pm 20.4 13.6 9.3 49 5.9 SSW 35 43 19 23 1012.2 1012.1 0.0
06/06:00pm 22.4 16.2 10.2 46 6.7 WSW 33 43 18 23 1011.9 1011.8 0.0
06/05:30pm 22.1 15.7 10.6 48 6.3 WSW 35 43 19 23 1011.7 1011.6 0.0
06/05:00pm 22.8 15.8 9.9 44 7.0 WSW 37 43 20 23 1011.7 1011.6 0.0
06/04:30pm 22.6 15.6 8.3 40 7.6 WSW 35 43 19 23 1011.8 1011.7 0.0
06/04:00pm 22.8 15.2 9.2 42 7.3 WSW 39 46 21 25 1011.9 1011.8 0.0
06/03:30pm 23.4 16.4 8.3 38 8.0 WSW 35 41 19 22 1012.0 1011.9 0.0
06/03:00pm 23.3 16.3 10.0 43 7.3 W 37 44 20 24 1012.1 1012.0 0.0
06/02:30pm 22.8 15.4 9.9 44 7.0 W 39 44 21 24 1012.1 1012.0 0.0
06/02:00pm 23.8 17.1 9.8 41 7.7 W 35 44 19 24 1012.0 1011.9 0.0
06/01:30pm 23.8 18.0 11.5 46 6.9 W 33 44 18 24 1012.2 1012.1 0.0
06/01:00pm 22.8 15.6 9.2 42 7.3 W 37 46 20 25 1012.6 1012.5 0.0
06/12:38pm 21.9 16.1 8.1 41 7.2 W 28 48 15 26 1012.7 1012.6 0.0
06/12:30pm 23.0 19.8 11.1 47 6.6 W 19 24 10 13 1012.4 1012.3 0.0
06/12:00pm 22.3 18.9 12.5 53 5.6 W 22 32 12 17 1012.8 1012.7 0.0
06/11:30am 21.5 15.8 11.8 54 5.4 WSW 33 41 18 22 1013.0 1012.9 0.0
06/11:00am 23.0 18.8 8.3 39 7.8 WSW 20 28 11 15 1012.9 1012.8 0.0
06/10:30am 22.8 19.0 9.9 44 7.0 WSW 20 30 11 16 1012.8 1012.7 0.0
06/10:00am 23.6 21.1 9.6 41 7.6 SW 13 19 7 10 1012.9 1012.8 0.0
06/09:30am 22.5 20.9 10.3 46 6.7 SE 9 15 5 8 1012.9 1012.8 0.0
06/09:00am 20.8 18.6 12.2 58 4.8 SSE 15 22 8 12 1012.9 1012.8 0.0
06/08:30am 18.6 15.9 12.8 69 3.3 SE 19 22 10 12 1012.9 1012.8 0.0
06/08:00am 16.9 14.0 13.0 78 2.2 SSE 20 24 11 13 1012.9 1012.8 0.0
06/07:30am 15.7 13.0 13.4 86 1.3 SSE 20 26 11 14 1012.8 1012.7 0.0
06/07:00am 14.2 12.6 12.9 92 0.7 S 13 15 7 8 1012.7 1012.6 0.0
06/06:30am 13.3 10.8 12.2 93 0.6 SE 17 20 9 11 1012.4 1012.3 0.0
06/06:00am 12.7 10.0 11.6 93 0.6 SE 17 20 9 11 1012.3 1012.2 0.0
06/05:30am 12.7 9.9 11.4 92 0.7 SSE 17 20 9 11 1012.4 1012.3 0.0
06/05:00am 12.6 9.8 11.3 92 0.7 SSE 17 20 9 11 1012.4 1012.3 0.0
06/04:30am 12.8 10.0 11.5 92 0.7 SSE 17 20 9 11 1012.5 1012.4 0.0
06/04:00am 12.6 9.5 11.5 93 0.6 S 19 22 10 12 1012.5 1012.4 0.0
06/03:30am 11.2 8.0 10.0 92 0.6 S 17 19 9 10 1012.8 1012.7 0.0
06/03:00am 12.0 9.5 10.9 93 0.6 SSE 15 17 8 9 1012.9 1012.8 0.0
06/02:30am 10.8 8.2 9.4 91 0.7 SSE 13 15 7 8 1013.2 1013.1 0.0
06/02:00am 11.0 7.7 9.6 91 0.7 S 17 20 9 11 1013.4 1013.3 0.0
06/01:30am 11.6 9.0 9.5 87 1.1 SSW 13 15 7 8 1013.4 1013.3 0.0
06/01:00am 13.3 10.5 11.4 88 1.0 SSE 17 19 9 10 1013.6 1013.5 0.0
06/12:30am 13.8 11.0 11.5 86 1.2 SE 17 20 9 11 1013.9 1013.8 0.0
06/12:00am 13.2 10.7 10.9 86 1.2 SSE 15 17 8 9 1014.4 1014.3 0.0
 
Date/Time
CDT
Temp
°C
App
Temp
°C
Dew
Point
°C
Rel
Hum
%
Delta-T
°C
Wind Press
QNH
hPa
Press
MSL
hPa
Rain since
9am
mm
Dir  Spd
km/h
Gust
km/h
Spd
kts
Gust
kts
05/11:30pm 13.5 10.9 10.7 83 1.5 S 15 17 8 9 1014.7 1014.6 0.0
05/11:00pm 14.6 11.4 11.4 81 1.7 SE 19 26 10 14 1014.7 1014.6 0.0
05/10:30pm 14.2 11.4 11.2 82 1.6 SSE 17 20 9 11 1014.7 1014.6 0.0
05/10:00pm 14.6 11.8 11.2 80 1.8 SSE 17 20 9 11 1015.0 1014.9 0.0
05/09:30pm 15.6 12.2 11.4 76 2.3 SSE 20 26 11 14 1014.9 1014.8 0.0
05/09:00pm 16.2 12.1 11.4 73 2.6 SE 24 30 13 16 1014.8 1014.7 0.0
05/08:30pm 16.9 12.2 10.5 66 3.4 SE 26 35 14 19 1015.0 1014.9 0.0
05/08:00pm 18.1 12.6 9.2 56 4.7 SE 28 35 15 19 1014.9 1014.8 0.0
05/07:30pm 19.5 13.8 8.5 49 5.7 SE 28 35 15 19 1014.8 1014.7 0.0
05/07:00pm 21.0 15.4 8.6 45 6.5 SSE 28 33 15 18 1014.8 1014.7 0.0
05/06:30pm 21.8 16.3 7.6 40 7.4 SSE 26 33 14 18 1014.8 1014.7 0.0
05/06:00pm 23.3 18.1 7.4 36 8.3 S 24 35 13 19 1014.8 1014.7 0.0
05/05:30pm 24.2 19.7 6.9 33 9.0 SSE 20 30 11 16 1014.9 1014.8 0.0
05/05:00pm 24.1 19.7 7.3 34 8.8 S 20 30 11 16 1015.0 1014.9 0.0
05/04:30pm 24.3 18.9 7.9 35 8.7 SE 26 35 14 19 1015.1 1015.0 0.0
05/04:00pm 25.5 18.4 8.1 33 9.3 SSE 35 46 19 25 1015.4 1015.3 0.0
05/03:30pm 25.4 19.0 7.1 31 9.6 SW 30 41 16 22 1015.2 1015.1 0.0
05/03:00pm 25.6 19.0 7.7 32 9.5 SW 32 41 17 22 1015.9 1015.8 0.0
05/02:30pm 24.2 19.0 7.4 34 8.8 WSW 24 33 13 18 1016.6 1016.5 0.0
05/02:00pm 24.4 19.9 8.4 36 8.6 W 22 30 12 16 1017.1 1017.0 0.0
05/01:30pm 24.3 20.3 6.6 32 9.1 E 17 24 9 13 1017.7 1017.6 0.0
05/01:00pm 23.6 19.4 7.3 35 8.5 ESE 19 30 10 16 1018.2 1018.1 0.0
05/12:30pm 22.7 19.1 6.9 36 8.1 ENE 15 24 8 13 1018.5 1018.4 0.0
05/12:00pm 21.6 18.2 5.9 36 7.9 NNE 13 26 7 14 1018.6 1018.5 0.0
05/11:30am 22.2 18.3 7.2 38 7.7 NE 17 26 9 14 1018.6 1018.5 0.0
05/11:00am 20.8 17.1 8.1 44 6.6 ENE 17 26 9 14 1018.9 1018.8 0.0
05/10:30am 20.8 17.4 9.1 47 6.2 ENE 17 26 9 14 1019.2 1019.1 0.0
05/10:00am 19.4 16.0 10.4 56 4.9 ESE 19 26 10 14 1020.0 1019.9 0.0
05/09:30am 17.9 14.3 10.0 60 4.2 ESE 19 26 10 14 1020.4 1020.3 0.0
05/09:00am 18.1 14.0 10.2 60 4.2 ESE 22 30 12 16 1020.5 1020.4 0.0
05/08:30am 17.6 11.9 9.8 60 4.1 ESE 30 35 16 19 1020.9 1020.8 0.0
05/08:00am 16.9 11.7 10.3 65 3.5 ESE 28 35 15 19 1020.7 1020.6 0.0
05/07:30am 15.9 11.0 10.0 68 3.1 ESE 26 33 14 18 1020.6 1020.5 0.0
05/07:00am 14.4 12.1 10.6 78 2.0 SE 13 15 7 8 1020.5 1020.4 0.0
05/06:30am 11.8 8.4 9.0 83 1.4 SE 17 19 9 10 1020.3 1020.2 0.0
05/06:00am 11.2 8.0 8.6 84 1.3 SE 15 17 8 9 1020.2 1020.1 0.0
05/05:30am 11.5 8.0 8.7 83 1.4 SE 17 19 9 10 1019.8 1019.7 0.0
05/05:00am 11.9 8.8 8.9 82 1.5 SE 15 17 8 9 1019.8 1019.7 0.0
05/04:30am 11.3 9.4 8.9 85 1.2 S 9 13 5 7 1019.7 1019.6 0.0
05/04:00am 12.0 10.1 9.0 82 1.5 SSE 9 11 5 6 1019.6 1019.5 0.0
05/03:30am 12.2 8.7 8.9 80 1.6 SE 17 19 9 10 1019.5 1019.4 0.0
05/03:00am 12.5 8.5 9.1 80 1.7 SE 20 24 11 13 1019.5 1019.4 0.0
05/02:30am 11.9 7.8 8.7 81 1.6 SE 20 22 11 12 1019.9 1019.8 0.0
05/02:00am 11.2 7.2 8.4 83 1.4 SSE 19 20 10 11 1020.3 1020.2 0.0
05/01:30am 11.8 8.3 8.6 81 1.6 SE 17 19 9 10 1020.7 1020.6 0.0
05/01:00am 11.9 8.7 8.4 79 1.7 SE 15 19 8 10 1021.2 1021.1 0.0
05/12:30am 12.5 8.6 8.8 78 1.8 SE 19 22 10 12 1021.4 1021.3 0.0
05/12:00am 12.6 9.1 8.7 77 1.9 SE 17 22 9 12 1021.5 1021.4 0.0
 
Date/Time
CDT
Temp
°C
App
Temp
°C
Dew
Point
°C
Rel
Hum
%
Delta-T
°C
Wind Press
QNH
hPa
Press
MSL
hPa
Rain since
9am
mm
Dir  Spd
km/h
Gust
km/h
Spd
kts
Gust
kts
04/11:30pm 13.3 8.9 8.8 74 2.3 SE 22 28 12 15 1021.4 1021.3 0.0
04/11:00pm 13.5 9.1 9.0 74 2.3 SE 22 28 12 15 1022.0 1021.9 0.0
04/10:30pm 13.8 9.5 9.3 74 2.3 SE 22 26 12 14 1022.2 1022.1 0.0
04/10:00pm 14.1 9.8 9.3 73 2.5 SE 22 28 12 15 1022.0 1021.9 0.0
04/09:30pm 14.5 9.8 9.3 71 2.7 SE 24 30 13 16 1021.8 1021.7 0.0
04/09:00pm 14.7 10.3 8.9 68 2.9 SE 22 26 12 14 1021.7 1021.6 0.0
04/08:30pm 15.6 10.5 9.1 65 3.3 SSE 26 32 14 17 1021.6 1021.5 0.0
04/08:00pm 16.8 12.4 9.0 60 4.0 SSE 22 30 12 16 1021.6 1021.5 0.0
04/07:30pm 18.0 12.4 8.6 54 4.8 SSE 28 35 15 19 1021.3 1021.2 0.0
04/07:00pm 18.8 13.2 8.7 52 5.3 SE 28 35 15 19 1021.3 1021.2 0.0
04/06:30pm 20.1 15.5 8.1 46 6.2 SSE 22 33 12 18 1021.2 1021.1 0.0
04/06:00pm 20.5 16.2 7.8 44 6.5 S 20 26 11 14 1021.1 1021.0 0.0
04/05:30pm 21.0 16.5 6.9 40 7.2 SSE 20 32 11 17 1021.3 1021.2 0.0
04/05:00pm 22.0 17.6 7.4 39 7.6 SSE 20 32 11 17 1021.2 1021.1 0.0
04/04:30pm 22.6 17.9 7.6 38 7.8 SSE 22 33 12 18 1021.2 1021.1 0.0
04/04:00pm 22.3 16.6 6.5 36 8.1 SSE 26 39 14 21 1021.5 1021.4 0.0
04/03:30pm 23.2 18.1 6.1 33 8.7 S 22 35 12 19 1021.8 1021.7 0.0
04/03:00pm 22.9 18.4 7.1 36 8.2 S 20 33 11 18 1022.0 1021.9 0.0
04/02:30pm 22.6 17.9 7.6 38 7.8 SE 22 35 12 19 1022.3 1022.2 0.0
04/02:00pm 22.0 16.7 7.0 38 7.7 SSE 24 33 13 18 1022.5 1022.4 0.0
04/01:30pm 23.2 17.9 6.9 35 8.4 SSE 24 37 13 20 1022.5 1022.4 0.0
04/01:00pm 21.5 16.2 5.0 34 8.1 SSE 22 39 12 21 1022.9 1022.8 0.0
04/12:30pm 22.3 17.7 5.7 34 8.3 SE 19 28 10 15 1023.6 1023.5 0.0
04/12:00pm 21.6 16.8 5.5 35 8.0 S 20 33 11 18 1023.6 1023.5 0.0
04/11:30am 20.7 15.8 5.1 36 7.6 S 20 37 11 20 1023.7 1023.6 0.0
04/11:00am 20.4 15.3 6.0 39 7.2 S 22 30 12 16 1023.4 1023.3 0.0
04/10:30am 19.8 14.3 5.8 40 6.9 SSE 24 32 13 17 1023.4 1023.3 0.0
04/10:00am 19.5 15.2 6.9 44 6.4 SSE 19 32 10 17 1023.5 1023.4 0.0
04/09:30am 18.5 13.9 6.7 46 5.9 S 20 30 11 16 1023.6 1023.5 0.0
04/09:00am 17.8 13.2 6.3 47 5.6 SSE 20 32 11 17 1023.6 1023.5 0.0
04/08:30am 17.0 12.1 6.8 51 5.0 SSE 22 32 12 17 1023.8 1023.7 0.0
04/08:00am 15.9 11.6 7.1 56 4.4 S 19 24 10 13 1023.7 1023.6 0.0

Other formats

Comma delimited format used in spreadsheet applications
http://www.bom.gov.au/fwo/IDS60801/IDS60801.95659.axf

JavaScript Object Notation format (JSON) in row-major order
http://www.bom.gov.au/fwo/IDS60801/IDS60801.95659.json

Data quality

Most of these data are generated automatically and are frequently updated. Quality checks on data are not normally performed. It is possible for incorrect values to appear. Refer to information at About Latest Weather Observations and please check the disclaimer before using these data.